Hurleyville, New York
Current Conditions -  °F | °C
As of 1:35 PM on Thursday 29 Jan 2015 (Local Time) from KMSV Reporting Station
Few Clouds Few Clouds  
Wind Chill: 17°   Ceiling: Unl
Heat Index: 27°   Visibility: 10mi
Dew Point:   Wind: 9mph
Humidity: 43%   Direction: 150°SSE
Pressure: 30.08"   Gusts: NA
Location:  41.74°N, 74.67°W
Report Text: KMSV 291835Z AUTO 15008KT 10SM FEW100 M03/M14 A3008 RMK AO1
Loading
Personal Weather Stations






























Interactive Weather Map New forecast layout! Learn more

10-Day Weather Forecast

Advertisements
Track Severe Weather on mobile